Time;durP1;ratioP1;P1;durP2;ratioP2;P2;SDS_P1;SDS_P2;PMS_P1;PMS_P2;Temp;Humidity;BMP_temperature;BMP_pressure;BME280_temperature;BME280_humidity;BME280_pressure;Samples;Min_cycle;Max_cycle;Signal;HPM_P1;HPM_P2
2021/12/31 00:05:49;;;;;;;4.70;4.00;;;;;;;6.56;96.39;99126.42;424928;1327;142011;-62
2021/12/31 00:15:55;;;;;;;5.10;4.40;;;;;;;6.73;96.36;99132.44;420447;1311;140795;-62
2021/12/31 00:26:00;;;;;;;5.10;4.30;;;;;;;6.94;96.72;99137.23;424874;1326;143225;-62
2021/12/31 00:36:06;;;;;;;6.50;5.80;;;;;;;7.07;96.52;99133.73;424147;1327;141307;-62
2021/12/31 00:46:12;;;;;;;6.90;6.10;;;;;;;7.19;96.76;99119.62;424544;1327;141747;-62
2021/12/31 00:56:18;;;;;;;6.20;5.30;;;;;;;7.29;96.76;99131.40;424853;1326;141125;-62
2021/12/31 01:06:24;;;;;;;6.10;5.50;;;;;;;7.36;96.78;99132.63;421076;1315;160138;-61
2021/12/31 01:16:38;;;;;;;7.30;6.60;;;;;;;7.43;96.77;99137.23;412117;1314;141905;-61
2021/12/31 01:26:44;;;;;;;10.40;9.10;;;;;;;7.42;96.64;99148.05;412619;1314;140919;-62
2021/12/31 01:36:50;;;;;;;13.40;11.00;;;;;;;7.40;96.93;99142.25;423895;1318;141315;-63
2021/12/31 01:46:58;;;;;;;12.30;11.00;;;;;;;7.44;96.79;99152.31;424834;1327;142357;-62
2021/12/31 01:57:06;;;;;;;12.90;9.70;;;;;;;7.49;96.85;99159.52;423913;1327;162813;-63
2021/12/31 02:07:10;;;;;;;;;;;;;;;7.57;96.89;99160.81;424949;1317;141272;-62
2021/12/31 02:17:16;;;;;;;8.40;7.00;;;;;;;7.68;97.05;99172.18;424918;1324;128914;-62
2021/12/31 02:27:22;;;;;;;13.00;11.70;;;;;;;7.74;97.16;99185.64;424181;1328;142114;-62
2021/12/31 02:37:29;;;;;;;10.60;9.20;;;;;;;7.79;97.25;99181.34;424664;1324;142454;-62
2021/12/31 02:47:34;;;;;;;12.90;10.10;;;;;;;7.83;97.00;99174.45;424933;1324;141491;-63
2021/12/31 02:57:41;;;;;;;11.90;10.60;;;;;;;7.90;97.24;99173.71;424275;1315;142855;-63
2021/12/31 03:07:48;;;;;;;12.10;10.90;;;;;;;7.97;97.57;99184.41;424837;1327;142382;-62
2021/12/31 03:17:59;;;;;;;13.40;11.70;;;;;;;8.04;97.36;99187.19;424943;1326;142155;-63
2021/12/31 03:28:06;;;;;;;12.60;11.40;;;;;;;8.07;97.68;99187.65;425617;1324;142144;-62
2021/12/31 03:38:12;;;;;;;13.60;12.00;;;;;;;8.13;97.97;99172.15;425648;1321;141411;-61
2021/12/31 03:48:18;;;;;;;14.10;12.50;;;;;;;8.17;97.84;99155.54;422080;1312;141890;-62
2021/12/31 03:58:24;;;;;;;12.70;10.90;;;;;;;8.17;97.80;99154.45;419951;1311;142510;-62
2021/12/31 04:08:30;;;;;;;11.00;9.90;;;;;;;8.21;97.92;99160.86;425730;1319;141515;-62
2021/12/31 04:18:36;;;;;;;9.70;8.80;;;;;;;8.23;97.97;99160.19;419312;1311;141813;-62
2021/12/31 04:28:42;;;;;;;9.90;8.50;;;;;;;8.26;97.96;99177.14;425668;1324;140764;-62
2021/12/31 04:38:47;;;;;;;9.50;8.60;;;;;;;8.32;98.07;99170.63;425291;1321;141733;-62
2021/12/31 04:48:54;;;;;;;9.90;8.90;;;;;;;8.39;98.29;99170.55;413108;1311;142221;-62
2021/12/31 04:59:00;;;;;;;11.60;9.90;;;;;;;8.44;98.42;99169.24;419750;1311;142232;-61
2021/12/31 05:09:06;;;;;;;11.80;10.60;;;;;;;8.47;98.59;99168.86;421584;1312;152125;-60
2021/12/31 05:19:11;;;;;;;11.70;9.90;;;;;;;8.54;98.84;99166.05;421475;1312;141845;-61
2021/12/31 05:29:17;;;;;;;7.20;6.50;;;;;;;8.57;98.80;99170.95;420282;1311;140898;-62
2021/12/31 05:39:25;;;;;;;7.00;6.30;;;;;;;8.59;98.76;99168.16;415992;1311;142397;-61
2021/12/31 05:49:31;;;;;;;8.10;5.80;;;;;;;8.60;98.76;99167.59;422666;1312;142239;-61
2021/12/31 05:59:36;;;;;;;5.50;5.00;;;;;;;8.58;98.60;99175.92;425242;1321;141457;-62
2021/12/31 06:09:42;;;;;;;3.90;3.50;;;;;;;8.62;98.77;99166.56;425044;1319;140793;-62
2021/12/31 06:19:48;;;;;;;3.40;3.10;;;;;;;8.70;98.75;99168.55;425635;1324;140956;-62
2021/12/31 06:29:54;;;;;;;3.00;2.70;;;;;;;8.75;98.75;99165.11;425652;1324;141773;-65
2021/12/31 06:40:03;;;;;;;2.60;2.40;;;;;;;8.79;98.75;99167.66;424881;1324;141816;-62
2021/12/31 06:50:10;;;;;;;1.60;1.50;;;;;;;8.84;98.96;99169.23;421496;1315;141795;-62
2021/12/31 07:00:17;;;;;;;1.10;1.10;;;;;;;8.90;99.10;99175.86;416422;1311;141162;-62
2021/12/31 07:10:23;;;;;;;1.50;1.30;;;;;;;8.93;99.03;99184.38;413745;1311;142278;-65
2021/12/31 07:20:29;;;;;;;2.30;2.10;;;;;;;8.97;99.27;99187.45;412825;1310;141206;-61
2021/12/31 07:30:35;;;;;;;3.70;3.00;;;;;;;9.01;99.25;99190.48;412951;1311;141903;-61
2021/12/31 07:40:42;;;;;;;4.50;4.20;;;;;;;9.05;99.28;99189.73;425224;1324;141265;-62
2021/12/31 07:50:48;;;;;;;6.60;5.70;;;;;;;9.10;99.27;99190.27;425615;1323;141344;-62
2021/12/31 08:00:53;;;;;;;7.90;7.30;;;;;;;9.18;98.93;99201.29;424807;1322;142369;-62
2021/12/31 08:10:59;;;;;;;8.10;7.40;;;;;;;9.25;98.99;99209.90;421772;1311;143647;-62
2021/12/31 08:21:06;;;;;;;8.40;7.80;;;;;;;9.31;98.88;99208.67;412413;1310;143711;-61
2021/12/31 08:31:12;;;;;;;6.70;6.10;;;;;;;9.35;98.93;99215.39;421759;1318;141405;-60
2021/12/31 08:41:18;;;;;;;7.20;6.60;;;;;;;9.41;98.89;99224.30;425424;1324;141649;-65
2021/12/31 08:51:44;;;;;;;7.90;6.20;;;;;;;9.43;98.47;99223.61;424680;1321;142310;-64
2021/12/31 09:01:50;;;;;;;8.00;7.30;;;;;;;9.44;98.43;99229.84;425119;1323;142161;-66
2021/12/31 09:11:56;;;;;;;7.60;6.90;;;;;;;9.53;98.52;99242.55;425557;1324;142026;-63
2021/12/31 09:22:04;;;;;;;9.00;8.20;;;;;;;9.60;98.36;99238.77;425511;1324;141821;-69
2021/12/31 09:32:10;;;;;;;8.00;7.20;;;;;;;9.72;98.39;99231.05;421624;1318;141663;-75
2021/12/31 09:42:16;;;;;;;7.10;6.50;;;;;;;9.73;97.89;99236.02;412793;1311;142632;-75
2021/12/31 09:52:24;;;;;;;6.80;6.00;;;;;;;9.72;97.85;99234.84;418416;1311;140897;-68
2021/12/31 10:02:34;;;;;;;8.20;7.50;;;;;;;9.72;97.80;99235.05;425729;1320;141730;-63
2021/12/31 10:12:52;;;;;;;7.60;6.60;;;;;;;9.77;97.64;99230.48;424887;1324;141512;-59
2021/12/31 10:23:15;;;;;;;6.60;6.00;;;;;;;9.80;97.42;99225.02;425575;1324;141288;-60
2021/12/31 10:33:42;;;;;;;5.10;4.60;;;;;;;9.79;97.17;99224.22;424849;1323;142310;-73
2021/12/31 10:43:59;;;;;;;5.60;4.50;;;;;;;9.86;96.99;99223.11;422818;1319;141518;-77
2021/12/31 10:54:28;;;;;;;5.60;4.70;;;;;;;9.87;96.71;99216.73;421156;1317;141523;-70
2021/12/31 11:04:35;;;;;;;4.40;4.00;;;;;;;9.94;96.51;99207.67;425568;1324;143792;-61
2021/12/31 11:14:41;;;;;;;5.30;4.80;;;;;;;10.02;96.33;99191.11;425260;1324;141493;-71
2021/12/31 11:24:47;;;;;;;4.50;4.10;;;;;;;10.12;95.95;99180.96;424332;1324;142511;-63
2021/12/31 11:35:38;;;;;;;3.90;3.60;;;;;;;10.14;95.59;99177.67;425170;1324;141795;-66
2021/12/31 11:45:44;;;;;;;4.20;3.90;;;;;;;10.24;95.31;99177.69;423842;1319;142020;-64
2021/12/31 11:55:50;;;;;;;5.40;3.50;;;;;;;10.25;94.97;99172.90;425538;1312;142717;-68
2021/12/31 12:05:56;;;;;;;4.40;4.00;;;;;;;10.26;94.60;99162.13;425700;1324;141972;-67
2021/12/31 12:16:03;;;;;;;3.70;3.00;;;;;;;10.25;94.44;99152.45;425897;1324;142577;-67
2021/12/31 12:26:10;;;;;;;6.30;4.30;;;;;;;10.22;94.27;99143.36;425595;1320;142428;-64
2021/12/31 12:36:17;;;;;;;3.80;2.90;;;;;;;10.17;94.18;99148.65;425151;1316;142194;-63
2021/12/31 12:46:24;;;;;;;6.10;3.00;;;;;;;10.14;94.08;99143.90;425505;1320;158297;-64
2021/12/31 12:56:30;;;;;;;4.10;2.50;;;;;;;10.21;93.82;99136.09;423934;1313;141158;-63
2021/12/31 13:06:40;;;;;;;3.40;2.60;;;;;;;10.22;93.42;99136.55;424928;1324;142044;-65
2021/12/31 13:16:49;;;;;;;4.40;3.00;;;;;;;10.23;93.30;99130.54;425645;1323;141650;-64
2021/12/31 13:26:57;;;;;;;3.40;2.30;;;;;;;10.25;92.98;99132.80;425618;1323;141552;-64
2021/12/31 13:37:04;;;;;;;3.50;2.50;;;;;;;10.25;92.73;99139.84;425778;1323;141515;-62
2021/12/31 13:47:13;;;;;;;4.10;2.90;;;;;;;10.27;92.51;99140.07;425138;1312;142412;-61
2021/12/31 13:57:21;;;;;;;4.40;3.00;;;;;;;10.25;92.28;99138.29;416903;1311;140897;-62
2021/12/31 14:07:35;;;;;;;7.00;3.50;;;;;;;10.16;92.10;99139.43;425722;1318;141637;-63
2021/12/31 14:17:41;;;;;;;4.50;3.50;;;;;;;9.99;92.08;99149.14;425366;1320;141406;-64
2021/12/31 14:27:47;;;;;;;5.80;4.60;;;;;;;9.90;92.13;99143.61;424917;1324;141678;-64
2021/12/31 14:37:54;;;;;;;6.10;5.00;;;;;;;9.75;92.27;99142.54;425827;1324;142261;-63
2021/12/31 14:48:01;;;;;;;7.30;4.60;;;;;;;9.67;92.42;99140.30;425129;1316;142185;-63
2021/12/31 14:58:07;;;;;;;6.80;4.50;;;;;;;9.63;92.46;99136.73;425109;1324;140955;-66
2021/12/31 15:08:13;;;;;;;4.80;3.80;;;;;;;9.61;92.36;99135.42;425617;1324;141791;-61
2021/12/31 15:18:19;;;;;;;4.40;3.70;;;;;;;9.64;92.22;99124.76;420208;1311;141405;-67
2021/12/31 15:28:25;;;;;;;7.20;5.20;;;;;;;9.65;91.88;99118.92;424212;1311;141242;-61
2021/12/31 15:38:31;;;;;;;6.50;4.00;;;;;;;9.60;91.75;99111.90;425589;1320;141633;-61
2021/12/31 15:48:36;;;;;;;22.50;20.40;;;;;;;9.55;91.46;99105.24;424844;1324;141489;-60
2021/12/31 15:58:45;;;;;;;7.90;6.30;;;;;;;9.48;91.56;99102.57;425045;1324;142103;-71
2021/12/31 16:08:51;;;;;;;13.20;8.30;;;;;;;9.39;91.42;99100.20;425405;1324;142217;-68
2021/12/31 16:18:57;;;;;;;11.00;6.00;;;;;;;9.35;91.47;99100.44;425128;1320;143108;-69
2021/12/31 16:29:03;;;;;;;13.00;8.50;;;;;;;9.34;91.42;99090.89;425576;1319;141766;-67
2021/12/31 16:39:09;;;;;;;9.30;5.70;;;;;;;9.32;91.42;99082.82;424771;1315;141519;-66
2021/12/31 16:49:14;;;;;;;9.00;5.70;;;;;;;9.31;91.37;99088.48;425277;1321;141421;-66
2021/12/31 16:59:20;;;;;;;8.00;4.90;;;;;;;9.33;91.35;99081.73;425444;1324;141709;-67
2021/12/31 17:09:26;;;;;;;9.70;5.60;;;;;;;9.35;91.19;99077.94;424591;1324;142114;-61
2021/12/31 17:19:32;;;;;;;6.90;5.30;;;;;;;9.37;90.96;99065.77;425855;1324;141945;-62
2021/12/31 17:29:38;;;;;;;7.10;4.60;;;;;;;9.39;90.82;99055.48;425777;1324;141780;-67
2021/12/31 17:39:44;;;;;;;6.90;4.80;;;;;;;9.43;90.67;99049.67;425082;1324;141770;-68
2021/12/31 17:49:50;;;;;;;7.40;5.60;;;;;;;9.39;90.40;99043.07;425421;1324;141350;-67
2021/12/31 17:59:55;;;;;;;7.70;5.00;;;;;;;9.41;90.26;99033.68;425718;1319;142002;-66
2021/12/31 18:10:01;;;;;;;6.70;5.50;;;;;;;9.43;90.00;99033.36;414124;1311;143176;-67
2021/12/31 18:20:09;;;;;;;9.00;6.30;;;;;;;9.45;89.84;99032.52;423285;1313;142615;-64
2021/12/31 18:30:16;;;;;;;10.20;6.00;;;;;;;9.47;89.65;99029.48;419012;1311;142328;-65
2021/12/31 18:40:22;;;;;;;9.90;5.70;;;;;;;9.49;89.54;99028.81;423350;1311;141755;-67
2021/12/31 18:50:28;;;;;;;6.80;5.00;;;;;;;9.51;89.18;99038.26;414162;1311;142419;-63
2021/12/31 19:00:34;;;;;;;9.70;6.50;;;;;;;9.46;89.06;99038.43;418784;1312;141063;-78
2021/12/31 19:10:40;;;;;;;10.30;6.70;;;;;;;9.39;89.14;99035.71;418325;1311;142709;-67
2021/12/31 19:20:46;;;;;;;13.20;7.20;;;;;;;9.33;89.04;99031.05;425898;1324;141679;-70
2021/12/31 19:30:52;;;;;;;7.40;4.70;;;;;;;9.32;89.00;99029.59;421800;1312;141718;-64
2021/12/31 19:40:57;;;;;;;13.30;8.50;;;;;;;9.38;88.98;99023.08;425690;1324;143446;-63
2021/12/31 19:51:03;;;;;;;16.30;11.10;;;;;;;9.33;89.12;99026.56;425005;1324;143245;-61
2021/12/31 20:01:10;;;;;;;16.90;11.60;;;;;;;9.16;89.28;99033.92;416484;1312;142535;-62
2021/12/31 20:11:16;;;;;;;11.50;9.10;;;;;;;8.93;89.50;99042.78;417137;1312;142243;-63
2021/12/31 20:21:22;;;;;;;12.20;8.70;;;;;;;8.72;89.94;99047.33;412192;1312;143040;-61
2021/12/31 20:31:27;;;;;;;10.70;7.50;;;;;;;8.64;90.88;99048.36;412354;1311;141905;-61
2021/12/31 20:41:33;;;;;;;8.80;6.60;;;;;;;8.60;91.32;99047.38;412476;1311;142540;-61
2021/12/31 20:51:41;;;;;;;8.20;6.80;;;;;;;8.57;91.88;99043.42;417001;1311;140974;-62
2021/12/31 21:01:47;;;;;;;8.00;6.50;;;;;;;8.56;92.42;99043.80;425583;1320;142987;-63
2021/12/31 21:11:53;;;;;;;19.40;17.10;;;;;;;8.65;92.89;99047.04;425161;1324;142380;-62
2021/12/31 21:21:59;;;;;;;5.50;4.30;;;;;;;8.77;93.14;99044.88;424725;1324;141683;-62
2021/12/31 21:32:06;;;;;;;5.10;3.80;;;;;;;8.88;93.57;99044.54;425389;1321;142218;-62
2021/12/31 21:42:12;;;;;;;6.60;4.50;;;;;;;8.96;93.80;99047.14;424727;1324;142646;-63
2021/12/31 21:52:17;;;;;;;5.30;4.60;;;;;;;9.00;94.17;99052.98;425551;1324;141460;-62
2021/12/31 22:02:24;;;;;;;4.60;4.10;;;;;;;9.04;94.00;99051.36;425127;1324;142136;-62
2021/12/31 22:12:34;;;;;;;6.90;6.20;;;;;;;9.05;93.98;99055.83;423389;1321;141846;-62
2021/12/31 22:22:39;;;;;;;5.70;4.50;;;;;;;9.04;93.95;99060.04;425246;1324;141847;-62
2021/12/31 22:32:47;;;;;;;5.30;4.80;;;;;;;9.05;94.00;99064.56;420700;1314;141667;-62
2021/12/31 22:42:52;;;;;;;7.50;5.50;;;;;;;9.05;94.05;99062.30;424289;1324;142745;-62
2021/12/31 22:52:58;;;;;;;4.90;4.40;;;;;;;9.02;94.03;99072.75;424988;1320;142291;-62
2021/12/31 23:03:04;;;;;;;145.40;111.50;;;;;;;9.00;94.18;99092.13;421594;1317;161577;-61
2021/12/31 23:13:10;;;;;;;44.50;39.60;;;;;;;9.00;94.24;99098.41;424987;1324;142313;-63
2021/12/31 23:23:17;;;;;;;37.20;33.10;;;;;;;9.00;94.31;99098.04;424653;1327;142222;-62
2021/12/31 23:33:23;;;;;;;21.30;19.10;;;;;;;8.99;94.55;99094.44;421406;1320;143016;-63
2021/12/31 23:43:38;;;;;;;16.00;13.60;;;;;;;9.00;94.62;99091.23;419089;1315;141483;-61
2021/12/31 23:53:43;;;;;;;11.00;8.50;;;;;;;8.98;94.56;99094.50;425704;1324;141347;-62
